sensor_id;sensor_type;location;lat;lon;timestamp;temperature;humidity
25718;DHT22;13574;52.040;5.692;2023-04-28T00:00:46;12.30;90.70
25718;DHT22;13574;52.040;5.692;2023-04-28T00:03:12;12.20;90.90
25718;DHT22;13574;52.040;5.692;2023-04-28T00:05:38;12.20;91.00
25718;DHT22;13574;52.040;5.692;2023-04-28T00:08:04;12.10;91.00
25718;DHT22;13574;52.040;5.692;2023-04-28T00:10:30;12.30;90.70
25718;DHT22;13574;52.040;5.692;2023-04-28T00:12:56;12.40;90.70
25718;DHT22;13574;52.040;5.692;2023-04-28T00:15:22;12.30;90.70
25718;DHT22;13574;52.040;5.692;2023-04-28T00:17:48;12.30;90.90
25718;DHT22;13574;52.040;5.692;2023-04-28T00:20:14;12.10;91.00
25718;DHT22;13574;52.040;5.692;2023-04-28T00:22:40;12.00;91.30
25718;DHT22;13574;52.040;5.692;2023-04-28T00:25:06;12.00;91.10
25718;DHT22;13574;52.040;5.692;2023-04-28T00:27:33;11.90;91.20
25718;DHT22;13574;52.040;5.692;2023-04-28T00:29:59;11.90;91.30
25718;DHT22;13574;52.040;5.692;2023-04-28T00:32:25;11.70;91.40
25718;DHT22;13574;52.040;5.692;2023-04-28T00:34:50;11.70;91.60
25718;DHT22;13574;52.040;5.692;2023-04-28T00:37:18;11.70;91.60
25718;DHT22;13574;52.040;5.692;2023-04-28T00:39:44;11.80;91.50
25718;DHT22;13574;52.040;5.692;2023-04-28T00:42:15;11.90;91.50
25718;DHT22;13574;52.040;5.692;2023-04-28T00:44:41;11.90;91.50
25718;DHT22;13574;52.040;5.692;2023-04-28T00:47:10;11.70;91.50
25718;DHT22;13574;52.040;5.692;2023-04-28T00:49:36;11.70;91.70
25718;DHT22;13574;52.040;5.692;2023-04-28T00:52:06;11.70;91.70
25718;DHT22;13574;52.040;5.692;2023-04-28T00:54:32;11.70;91.70
25718;DHT22;13574;52.040;5.692;2023-04-28T00:56:59;11.70;91.70
25718;DHT22;13574;52.040;5.692;2023-04-28T00:59:28;11.70;91.70
25718;DHT22;13574;52.040;5.692;2023-04-28T01:01:54;11.60;91.80
25718;DHT22;13574;52.040;5.692;2023-04-28T01:04:22;11.70;91.60
25718;DHT22;13574;52.040;5.692;2023-04-28T01:06:49;11.70;91.70
25718;DHT22;13574;52.040;5.692;2023-04-28T01:09:15;11.60;91.70
25718;DHT22;13574;52.040;5.692;2023-04-28T01:11:41;11.80;91.90
25718;DHT22;13574;52.040;5.692;2023-04-28T01:14:06;11.80;92.30
25718;DHT22;13574;52.040;5.692;2023-04-28T01:16:33;11.70;92.70
25718;DHT22;13574;52.040;5.692;2023-04-28T01:18:59;11.50;92.50
25718;DHT22;13574;52.040;5.692;2023-04-28T01:21:32;11.60;92.80
25718;DHT22;13574;52.040;5.692;2023-04-28T01:23:59;11.70;92.70
25718;DHT22;13574;52.040;5.692;2023-04-28T01:26:25;11.80;92.70
25718;DHT22;13574;52.040;5.692;2023-04-28T01:28:51;11.70;92.50
25718;DHT22;13574;52.040;5.692;2023-04-28T01:31:17;11.80;92.70
25718;DHT22;13574;52.040;5.692;2023-04-28T01:33:43;11.70;92.80
25718;DHT22;13574;52.040;5.692;2023-04-28T01:36:09;11.70;92.80
25718;DHT22;13574;52.040;5.692;2023-04-28T01:38:35;11.90;92.70
25718;DHT22;13574;52.040;5.692;2023-04-28T01:41:03;11.80;92.70
25718;DHT22;13574;52.040;5.692;2023-04-28T01:43:28;11.60;93.10
25718;DHT22;13574;52.040;5.692;2023-04-28T01:45:54;11.30;93.50
25718;DHT22;13574;52.040;5.692;2023-04-28T01:48:20;11.50;93.60
25718;DHT22;13574;52.040;5.692;2023-04-28T01:50:46;11.60;93.30
25718;DHT22;13574;52.040;5.692;2023-04-28T01:53:12;11.50;93.30
25718;DHT22;13574;52.040;5.692;2023-04-28T01:55:38;11.60;93.30
25718;DHT22;13574;52.040;5.692;2023-04-28T01:58:04;11.50;93.60
25718;DHT22;13574;52.040;5.692;2023-04-28T02:00:30;11.60;93.10
25718;DHT22;13574;52.040;5.692;2023-04-28T02:02:56;11.60;93.30
25718;DHT22;13574;52.040;5.692;2023-04-28T02:05:22;11.70;93.00
25718;DHT22;13574;52.040;5.692;2023-04-28T02:07:47;11.70;93.00
25718;DHT22;13574;52.040;5.692;2023-04-28T02:10:13;11.70;92.90
25718;DHT22;13574;52.040;5.692;2023-04-28T02:12:39;11.60;93.00
25718;DHT22;13574;52.040;5.692;2023-04-28T02:15:07;11.40;93.20
25718;DHT22;13574;52.040;5.692;2023-04-28T02:17:33;11.50;93.30
25718;DHT22;13574;52.040;5.692;2023-04-28T02:19:59;11.50;93.10
25718;DHT22;13574;52.040;5.692;2023-04-28T02:22:25;11.50;93.20
25718;DHT22;13574;52.040;5.692;2023-04-28T02:24:51;11.50;93.20
25718;DHT22;13574;52.040;5.692;2023-04-28T02:27:17;11.70;93.00
25718;DHT22;13574;52.040;5.692;2023-04-28T02:29:43;11.70;92.80
25718;DHT22;13574;52.040;5.692;2023-04-28T02:32:09;11.70;93.00
25718;DHT22;13574;52.040;5.692;2023-04-28T02:34:34;11.70;92.90
25718;DHT22;13574;52.040;5.692;2023-04-28T02:37:00;11.80;92.90
25718;DHT22;13574;52.040;5.692;2023-04-28T02:39:30;11.90;92.70
25718;DHT22;13574;52.040;5.692;2023-04-28T02:41:57;11.80;92.80
25718;DHT22;13574;52.040;5.692;2023-04-28T02:44:23;11.70;92.80
25718;DHT22;13574;52.040;5.692;2023-04-28T02:46:49;11.80;92.80
25718;DHT22;13574;52.040;5.692;2023-04-28T02:49:15;11.80;92.80
25718;DHT22;13574;52.040;5.692;2023-04-28T02:51:41;11.60;93.10
25718;DHT22;13574;52.040;5.692;2023-04-28T02:54:07;11.70;93.10
25718;DHT22;13574;52.040;5.692;2023-04-28T02:56:34;11.70;93.10
25718;DHT22;13574;52.040;5.692;2023-04-28T02:58:59;11.80;92.90
25718;DHT22;13574;52.040;5.692;2023-04-28T03:01:25;11.90;92.80
25718;DHT22;13574;52.040;5.692;2023-04-28T03:03:51;11.90;92.90
25718;DHT22;13574;52.040;5.692;2023-04-28T03:06:17;11.70;93.00
25718;DHT22;13574;52.040;5.692;2023-04-28T03:08:42;11.80;93.10
25718;DHT22;13574;52.040;5.692;2023-04-28T03:11:08;11.70;93.50
25718;DHT22;13574;52.040;5.692;2023-04-28T03:13:37;11.80;93.10
25718;DHT22;13574;52.040;5.692;2023-04-28T03:16:05;11.80;92.90
25718;DHT22;13574;52.040;5.692;2023-04-28T03:18:32;11.90;92.90
25718;DHT22;13574;52.040;5.692;2023-04-28T03:21:00;11.80;92.90
25718;DHT22;13574;52.040;5.692;2023-04-28T03:23:26;11.70;93.00
25718;DHT22;13574;52.040;5.692;2023-04-28T03:25:51;11.90;93.00
25718;DHT22;13574;52.040;5.692;2023-04-28T03:28:20;11.50;93.30
25718;DHT22;13574;52.040;5.692;2023-04-28T03:30:46;11.70;93.20
25718;DHT22;13574;52.040;5.692;2023-04-28T03:33:12;11.70;93.20
25718;DHT22;13574;52.040;5.692;2023-04-28T03:35:37;11.60;93.40
25718;DHT22;13574;52.040;5.692;2023-04-28T03:38:03;11.50;93.60
25718;DHT22;13574;52.040;5.692;2023-04-28T03:40:29;11.50;93.70
25718;DHT22;13574;52.040;5.692;2023-04-28T03:42:55;11.60;93.70
25718;DHT22;13574;52.040;5.692;2023-04-28T03:45:21;11.50;93.80
25718;DHT22;13574;52.040;5.692;2023-04-28T03:47:47;11.50;94.00
25718;DHT22;13574;52.040;5.692;2023-04-28T03:50:13;11.30;94.10
25718;DHT22;13574;52.040;5.692;2023-04-28T03:52:38;11.30;94.20
25718;DHT22;13574;52.040;5.692;2023-04-28T03:55:04;11.30;94.30
25718;DHT22;13574;52.040;5.692;2023-04-28T03:57:30;11.30;94.40
25718;DHT22;13574;52.040;5.692;2023-04-28T03:59:56;11.20;94.60
25718;DHT22;13574;52.040;5.692;2023-04-28T04:02:22;11.20;94.60
25718;DHT22;13574;52.040;5.692;2023-04-28T04:04:47;11.20;94.60
25718;DHT22;13574;52.040;5.692;2023-04-28T04:07:13;11.30;94.60
25718;DHT22;13574;52.040;5.692;2023-04-28T04:09:39;11.50;94.50
25718;DHT22;13574;52.040;5.692;2023-04-28T04:12:07;11.40;94.50
25718;DHT22;13574;52.040;5.692;2023-04-28T04:14:33;11.50;94.40
25718;DHT22;13574;52.040;5.692;2023-04-28T04:16:58;11.50;94.50
25718;DHT22;13574;52.040;5.692;2023-04-28T04:19:26;11.80;94.30
25718;DHT22;13574;52.040;5.692;2023-04-28T04:21:52;11.80;94.20
25718;DHT22;13574;52.040;5.692;2023-04-28T04:24:21;11.90;94.20
25718;DHT22;13574;52.040;5.692;2023-04-28T04:26:46;11.80;94.20
25718;DHT22;13574;52.040;5.692;2023-04-28T04:29:12;11.90;94.20
25718;DHT22;13574;52.040;5.692;2023-04-28T04:31:38;11.80;94.70
25718;DHT22;13574;52.040;5.692;2023-04-28T04:34:03;11.70;94.50
25718;DHT22;13574;52.040;5.692;2023-04-28T04:36:29;11.60;94.70
25718;DHT22;13574;52.040;5.692;2023-04-28T04:38:57;11.60;94.90
25718;DHT22;13574;52.040;5.692;2023-04-28T04:41:25;11.50;95.10
25718;DHT22;13574;52.040;5.692;2023-04-28T04:43:51;11.40;95.30
25718;DHT22;13574;52.040;5.692;2023-04-28T04:46:17;11.40;95.60
25718;DHT22;13574;52.040;5.692;2023-04-28T04:48:43;11.40;95.80
25718;DHT22;13574;52.040;5.692;2023-04-28T04:51:09;11.40;95.90
25718;DHT22;13574;52.040;5.692;2023-04-28T04:53:34;11.50;96.10
25718;DHT22;13574;52.040;5.692;2023-04-28T04:56:00;11.50;96.10
25718;DHT22;13574;52.040;5.692;2023-04-28T04:58:29;11.50;96.50
25718;DHT22;13574;52.040;5.692;2023-04-28T05:01:06;11.40;96.80
25718;DHT22;13574;52.040;5.692;2023-04-28T05:03:34;11.40;97.30
25718;DHT22;13574;52.040;5.692;2023-04-28T05:06:00;11.30;97.70
25718;DHT22;13574;52.040;5.692;2023-04-28T05:08:27;11.30;98.00
25718;DHT22;13574;52.040;5.692;2023-04-28T05:10:55;11.40;98.00
25718;DHT22;13574;52.040;5.692;2023-04-28T05:13:22;11.50;98.10
25718;DHT22;13574;52.040;5.692;2023-04-28T05:19:12;11.90;98.10
25718;DHT22;13574;52.040;5.692;2023-04-28T05:21:37;12.00;98.10
25718;DHT22;13574;52.040;5.692;2023-04-28T05:24:03;12.10;98.20
25718;DHT22;13574;52.040;5.692;2023-04-28T05:26:29;12.10;98.30
25718;DHT22;13574;52.040;5.692;2023-04-28T05:28:55;12.20;98.60
25718;DHT22;13574;52.040;5.692;2023-04-28T05:31:20;12.30;98.80
25718;DHT22;13574;52.040;5.692;2023-04-28T05:33:46;12.30;99.10
25718;DHT22;13574;52.040;5.692;2023-04-28T05:36:14;12.40;99.50
25718;DHT22;13574;52.040;5.692;2023-04-28T05:38:42;12.20;99.90
25718;DHT22;13574;52.040;5.692;2023-04-28T05:41:08;12.20;99.90
25718;DHT22;13574;52.040;5.692;2023-04-28T05:43:33;12.30;99.90
25718;DHT22;13574;52.040;5.692;2023-04-28T05:45:59;12.20;99.90
25718;DHT22;13574;52.040;5.692;2023-04-28T05:48:25;12.30;99.90
25718;DHT22;13574;52.040;5.692;2023-04-28T05:50:51;12.50;99.90
25718;DHT22;13574;52.040;5.692;2023-04-28T05:53:17;12.70;99.90
25718;DHT22;13574;52.040;5.692;2023-04-28T05:55:42;13.00;99.90
25718;DHT22;13574;52.040;5.692;2023-04-28T05:58:08;13.00;99.90
25718;DHT22;13574;52.040;5.692;2023-04-28T06:00:34;13.30;99.90
25718;DHT22;13574;52.040;5.692;2023-04-28T06:03:00;13.40;99.80
25718;DHT22;13574;52.040;5.692;2023-04-28T06:05:26;13.60;99.50
25718;DHT22;13574;52.040;5.692;2023-04-28T06:07:52;13.60;99.90
25718;DHT22;13574;52.040;5.692;2023-04-28T06:10:18;13.50;99.90
25718;DHT22;13574;52.040;5.692;2023-04-28T06:12:44;13.10;99.90
25718;DHT22;13574;52.040;5.692;2023-04-28T06:15:10;13.00;99.90
25718;DHT22;13574;52.040;5.692;2023-04-28T06:17:37;13.00;99.90
25718;DHT22;13574;52.040;5.692;2023-04-28T06:20:04;12.80;99.90
25718;DHT22;13574;52.040;5.692;2023-04-28T06:22:30;12.60;99.90
25718;DHT22;13574;52.040;5.692;2023-04-28T06:24:58;12.40;99.90
25718;DHT22;13574;52.040;5.692;2023-04-28T06:27:24;12.30;99.90
25718;DHT22;13574;52.040;5.692;2023-04-28T06:29:50;12.20;99.90
25718;DHT22;13574;52.040;5.692;2023-04-28T06:32:19;12.20;99.90
25718;DHT22;13574;52.040;5.692;2023-04-28T06:34:47;12.10;99.90
25718;DHT22;13574;52.040;5.692;2023-04-28T06:37:13;12.10;99.90
25718;DHT22;13574;52.040;5.692;2023-04-28T06:39:41;12.00;99.90
25718;DHT22;13574;52.040;5.692;2023-04-28T06:42:07;12.10;99.90
25718;DHT22;13574;52.040;5.692;2023-04-28T06:44:32;12.20;99.90
25718;DHT22;13574;52.040;5.692;2023-04-28T06:46:58;12.30;99.90
25718;DHT22;13574;52.040;5.692;2023-04-28T06:49:24;12.30;99.90
25718;DHT22;13574;52.040;5.692;2023-04-28T06:51:50;12.30;99.90
25718;DHT22;13574;52.040;5.692;2023-04-28T06:54:16;12.50;99.90
25718;DHT22;13574;52.040;5.692;2023-04-28T06:56:41;12.70;99.90
25718;DHT22;13574;52.040;5.692;2023-04-28T06:59:07;12.60;99.90
25718;DHT22;13574;52.040;5.692;2023-04-28T07:01:35;12.60;99.90
25718;DHT22;13574;52.040;5.692;2023-04-28T07:04:01;12.70;99.90
25718;DHT22;13574;52.040;5.692;2023-04-28T07:06:26;12.70;99.90
25718;DHT22;13574;52.040;5.692;2023-04-28T07:08:53;12.90;99.90
25718;DHT22;13574;52.040;5.692;2023-04-28T07:11:18;13.40;99.90
25718;DHT22;13574;52.040;5.692;2023-04-28T07:13:44;13.30;99.90
25718;DHT22;13574;52.040;5.692;2023-04-28T07:16:18;13.50;99.90
25718;DHT22;13574;52.040;5.692;2023-04-28T07:18:44;13.60;99.90
25718;DHT22;13574;52.040;5.692;2023-04-28T07:21:10;13.70;99.90
25718;DHT22;13574;52.040;5.692;2023-04-28T07:23:36;14.00;99.90
25718;DHT22;13574;52.040;5.692;2023-04-28T07:26:03;14.30;99.90
25718;DHT22;13574;52.040;5.692;2023-04-28T07:28:29;14.40;99.90
25718;DHT22;13574;52.040;5.692;2023-04-28T07:30:55;14.60;99.90
25718;DHT22;13574;52.040;5.692;2023-04-28T07:33:22;14.80;99.90
25718;DHT22;13574;52.040;5.692;2023-04-28T07:35:50;14.70;99.90
25718;DHT22;13574;52.040;5.692;2023-04-28T07:38:17;14.80;99.90
25718;DHT22;13574;52.040;5.692;2023-04-28T07:40:45;14.80;99.90
25718;DHT22;13574;52.040;5.692;2023-04-28T07:43:20;14.70;99.90
25718;DHT22;13574;52.040;5.692;2023-04-28T07:45:45;14.70;99.90
25718;DHT22;13574;52.040;5.692;2023-04-28T07:48:14;14.50;99.90
25718;DHT22;13574;52.040;5.692;2023-04-28T07:50:39;14.60;99.90
25718;DHT22;13574;52.040;5.692;2023-04-28T07:53:05;14.80;99.90
25718;DHT22;13574;52.040;5.692;2023-04-28T07:55:31;14.80;99.90
25718;DHT22;13574;52.040;5.692;2023-04-28T07:57:56;14.90;99.90
25718;DHT22;13574;52.040;5.692;2023-04-28T08:00:23;15.40;99.90
25718;DHT22;13574;52.040;5.692;2023-04-28T08:02:49;15.60;99.90
25718;DHT22;13574;52.040;5.692;2023-04-28T08:05:15;15.50;99.90
25718;DHT22;13574;52.040;5.692;2023-04-28T08:07:41;15.40;99.90
25718;DHT22;13574;52.040;5.692;2023-04-28T08:10:11;15.50;99.90
25718;DHT22;13574;52.040;5.692;2023-04-28T08:12:37;15.80;99.90
25718;DHT22;13574;52.040;5.692;2023-04-28T08:15:04;16.10;99.90
25718;DHT22;13574;52.040;5.692;2023-04-28T08:17:29;16.00;99.90
25718;DHT22;13574;52.040;5.692;2023-04-28T08:19:55;15.80;99.90
25718;DHT22;13574;52.040;5.692;2023-04-28T08:22:21;16.30;99.90
25718;DHT22;13574;52.040;5.692;2023-04-28T08:24:49;16.80;99.90
25718;DHT22;13574;52.040;5.692;2023-04-28T08:27:15;16.80;99.90
25718;DHT22;13574;52.040;5.692;2023-04-28T08:29:40;16.80;99.90
25718;DHT22;13574;52.040;5.692;2023-04-28T08:32:06;16.80;99.90
25718;DHT22;13574;52.040;5.692;2023-04-28T08:34:32;16.70;99.90
25718;DHT22;13574;52.040;5.692;2023-04-28T08:36:58;17.00;99.90
25718;DHT22;13574;52.040;5.692;2023-04-28T08:39:32;17.40;99.90
25718;DHT22;13574;52.040;5.692;2023-04-28T08:42:29;17.90;99.90
25718;DHT22;13574;52.040;5.692;2023-04-28T08:45:03;18.30;99.90
25718;DHT22;13574;52.040;5.692;2023-04-28T08:47:37;18.20;99.90
25718;DHT22;13574;52.040;5.692;2023-04-28T08:50:06;18.20;99.90
25718;DHT22;13574;52.040;5.692;2023-04-28T08:52:33;17.90;99.90
25718;DHT22;13574;52.040;5.692;2023-04-28T08:55:01;17.90;99.90
25718;DHT22;13574;52.040;5.692;2023-04-28T08:57:41;17.70;99.90
25718;DHT22;13574;52.040;5.692;2023-04-28T09:00:10;17.70;99.90
25718;DHT22;13574;52.040;5.692;2023-04-28T09:02:36;17.90;99.90
25718;DHT22;13574;52.040;5.692;2023-04-28T09:05:09;17.90;99.90
25718;DHT22;13574;52.040;5.692;2023-04-28T09:07:35;18.20;99.90
25718;DHT22;13574;52.040;5.692;2023-04-28T09:12:41;18.20;99.90
25718;DHT22;13574;52.040;5.692;2023-04-28T09:15:07;17.90;99.90
25718;DHT22;13574;52.040;5.692;2023-04-28T09:17:51;18.00;99.90
25718;DHT22;13574;52.040;5.692;2023-04-28T09:20:43;18.20;99.90
25718;DHT22;13574;52.040;5.692;2023-04-28T09:23:19;18.40;99.90
25718;DHT22;13574;52.040;5.692;2023-04-28T09:26:05;18.30;99.90
25718;DHT22;13574;52.040;5.692;2023-04-28T09:28:40;18.20;99.90
25718;DHT22;13574;52.040;5.692;2023-04-28T09:31:34;17.90;99.90
25718;DHT22;13574;52.040;5.692;2023-04-28T09:34:05;17.60;99.90
25718;DHT22;13574;52.040;5.692;2023-04-28T09:36:53;17.70;99.90
25718;DHT22;13574;52.040;5.692;2023-04-28T09:39:32;18.00;99.90
25718;DHT22;13574;52.040;5.692;2023-04-28T09:42:00;18.20;99.90
25718;DHT22;13574;52.040;5.692;2023-04-28T09:44:28;18.10;99.90
25718;DHT22;13574;52.040;5.692;2023-04-28T09:46:53;18.20;99.90
25718;DHT22;13574;52.040;5.692;2023-04-28T09:49:19;18.40;99.90
25718;DHT22;13574;52.040;5.692;2023-04-28T09:51:45;18.50;99.90
25718;DHT22;13574;52.040;5.692;2023-04-28T09:54:13;18.40;99.90
25718;DHT22;13574;52.040;5.692;2023-04-28T09:56:40;18.40;99.90
25718;DHT22;13574;52.040;5.692;2023-04-28T09:59:08;18.10;99.90
25718;DHT22;13574;52.040;5.692;2023-04-28T10:01:39;18.20;99.90
25718;DHT22;13574;52.040;5.692;2023-04-28T10:04:08;18.30;99.90
25718;DHT22;13574;52.040;5.692;2023-04-28T10:06:38;18.60;99.90
25718;DHT22;13574;52.040;5.692;2023-04-28T10:09:06;18.80;99.90
25718;DHT22;13574;52.040;5.692;2023-04-28T10:11:32;19.00;99.90
25718;DHT22;13574;52.040;5.692;2023-04-28T10:13:58;19.10;99.90
25718;DHT22;13574;52.040;5.692;2023-04-28T10:16:26;19.20;99.90
25718;DHT22;13574;52.040;5.692;2023-04-28T10:18:57;19.30;99.90
25718;DHT22;13574;52.040;5.692;2023-04-28T10:21:24;19.30;99.90
25718;DHT22;13574;52.040;5.692;2023-04-28T10:24:17;19.20;99.90
25718;DHT22;13574;52.040;5.692;2023-04-28T10:29:31;19.10;99.90
25718;DHT22;13574;52.040;5.692;2023-04-28T10:34:44;19.20;99.90
25718;DHT22;13574;52.040;5.692;2023-04-28T10:37:10;19.30;99.90
25718;DHT22;13574;52.040;5.692;2023-04-28T10:39:36;19.30;99.90
25718;DHT22;13574;52.040;5.692;2023-04-28T10:42:02;19.20;99.90
25718;DHT22;13574;52.040;5.692;2023-04-28T10:47:04;19.10;99.90
25718;DHT22;13574;52.040;5.692;2023-04-28T11:00:46;19.00;99.90
25718;DHT22;13574;52.040;5.692;2023-04-28T11:04:13;18.90;99.90
25718;DHT22;13574;52.040;5.692;2023-04-28T11:11:30;18.90;99.90
25718;DHT22;13574;52.040;5.692;2023-04-28T11:17:04;19.00;99.90
25718;DHT22;13574;52.040;5.692;2023-04-28T11:19:36;18.90;99.90
25718;DHT22;13574;52.040;5.692;2023-04-28T11:22:12;18.70;99.90
25718;DHT22;13574;52.040;5.692;2023-04-28T11:24:38;18.70;99.90
25718;DHT22;13574;52.040;5.692;2023-04-28T11:27:06;18.60;99.90
25718;DHT22;13574;52.040;5.692;2023-04-28T11:29:35;18.50;99.90
25718;DHT22;13574;52.040;5.692;2023-04-28T11:32:02;18.60;99.90
25718;DHT22;13574;52.040;5.692;2023-04-28T11:34:28;18.70;99.90
25718;DHT22;13574;52.040;5.692;2023-04-28T11:36:56;18.70;99.90
25718;DHT22;13574;52.040;5.692;2023-04-28T11:39:30;18.50;99.90
25718;DHT22;13574;52.040;5.692;2023-04-28T11:41:57;18.50;99.90
25718;DHT22;13574;52.040;5.692;2023-04-28T11:44:27;18.40;99.90
25718;DHT22;13574;52.040;5.692;2023-04-28T11:46:58;18.50;99.90
25718;DHT22;13574;52.040;5.692;2023-04-28T11:49:43;18.60;99.90
25718;DHT22;13574;52.040;5.692;2023-04-28T11:52:10;19.00;99.90
25718;DHT22;13574;52.040;5.692;2023-04-28T11:54:38;19.10;99.90
25718;DHT22;13574;52.040;5.692;2023-04-28T11:57:16;19.20;99.90
25718;DHT22;13574;52.040;5.692;2023-04-28T11:59:42;19.30;99.90
25718;DHT22;13574;52.040;5.692;2023-04-28T12:02:08;19.40;99.90
25718;DHT22;13574;52.040;5.692;2023-04-28T12:04:36;19.60;99.90
25718;DHT22;13574;52.040;5.692;2023-04-28T12:09:38;19.20;99.90
25718;DHT22;13574;52.040;5.692;2023-04-28T12:12:06;19.10;99.90
25718;DHT22;13574;52.040;5.692;2023-04-28T12:14:52;19.00;99.90
25718;DHT22;13574;52.040;5.692;2023-04-28T12:17:28;19.00;99.90
25718;DHT22;13574;52.040;5.692;2023-04-28T12:19:56;18.90;99.90
25718;DHT22;13574;52.040;5.692;2023-04-28T12:22:22;19.10;99.90
25718;DHT22;13574;52.040;5.692;2023-04-28T12:25:08;18.90;99.90
25718;DHT22;13574;52.040;5.692;2023-04-28T12:27:38;19.00;99.90
25718;DHT22;13574;52.040;5.692;2023-04-28T12:32:47;18.80;99.90
25718;DHT22;13574;52.040;5.692;2023-04-28T12:35:12;18.80;99.90
25718;DHT22;13574;52.040;5.692;2023-04-28T12:37:39;19.00;99.90
25718;DHT22;13574;52.040;5.692;2023-04-28T12:40:07;19.00;99.90
25718;DHT22;13574;52.040;5.692;2023-04-28T12:42:33;19.30;99.90
25718;DHT22;13574;52.040;5.692;2023-04-28T12:44:59;19.20;99.90
25718;DHT22;13574;52.040;5.692;2023-04-28T12:47:25;19.10;99.90
25718;DHT22;13574;52.040;5.692;2023-04-28T12:49:50;19.20;99.90
25718;DHT22;13574;52.040;5.692;2023-04-28T12:52:21;19.30;99.90
25718;DHT22;13574;52.040;5.692;2023-04-28T12:54:47;19.40;99.90
25718;DHT22;13574;52.040;5.692;2023-04-28T12:57:14;19.50;99.90
25718;DHT22;13574;52.040;5.692;2023-04-28T12:59:40;19.70;99.90
25718;DHT22;13574;52.040;5.692;2023-04-28T13:02:06;19.90;99.90
25718;DHT22;13574;52.040;5.692;2023-04-28T13:04:32;20.00;99.90
25718;DHT22;13574;52.040;5.692;2023-04-28T13:06:57;20.10;99.90
25718;DHT22;13574;52.040;5.692;2023-04-28T13:09:24;19.70;99.90
25718;DHT22;13574;52.040;5.692;2023-04-28T13:11:50;19.60;99.90
25718;DHT22;13574;52.040;5.692;2023-04-28T13:14:18;19.10;99.90
25718;DHT22;13574;52.040;5.692;2023-04-28T13:16:44;18.90;99.90
25718;DHT22;13574;52.040;5.692;2023-04-28T13:19:10;18.80;99.90
25718;DHT22;13574;52.040;5.692;2023-04-28T13:21:38;19.00;99.90
25718;DHT22;13574;52.040;5.692;2023-04-28T13:24:06;19.10;99.90
25718;DHT22;13574;52.040;5.692;2023-04-28T13:26:32;19.30;99.90
25718;DHT22;13574;52.040;5.692;2023-04-28T13:28:57;19.50;99.90
25718;DHT22;13574;52.040;5.692;2023-04-28T13:31:24;19.40;99.90
25718;DHT22;13574;52.040;5.692;2023-04-28T13:33:50;19.40;99.90
25718;DHT22;13574;52.040;5.692;2023-04-28T13:36:15;19.40;99.90
25718;DHT22;13574;52.040;5.692;2023-04-28T13:38:41;19.20;99.90
25718;DHT22;13574;52.040;5.692;2023-04-28T13:41:10;19.30;99.90
25718;DHT22;13574;52.040;5.692;2023-04-28T13:43:35;19.50;99.90
25718;DHT22;13574;52.040;5.692;2023-04-28T13:46:01;19.80;99.90
25718;DHT22;13574;52.040;5.692;2023-04-28T13:48:33;20.00;99.90
25718;DHT22;13574;52.040;5.692;2023-04-28T13:50:59;20.20;99.90
25718;DHT22;13574;52.040;5.692;2023-04-28T13:53:25;19.90;99.90
25718;DHT22;13574;52.040;5.692;2023-04-28T13:55:51;20.00;99.90
25718;DHT22;13574;52.040;5.692;2023-04-28T13:58:18;20.00;99.90
25718;DHT22;13574;52.040;5.692;2023-04-28T14:00:44;20.00;99.90
25718;DHT22;13574;52.040;5.692;2023-04-28T14:03:10;19.80;99.90
25718;DHT22;13574;52.040;5.692;2023-04-28T14:05:36;19.80;99.90
25718;DHT22;13574;52.040;5.692;2023-04-28T14:08:01;19.80;99.90
25718;DHT22;13574;52.040;5.692;2023-04-28T14:10:28;19.70;99.90
25718;DHT22;13574;52.040;5.692;2023-04-28T14:12:54;19.80;99.90
25718;DHT22;13574;52.040;5.692;2023-04-28T14:15:19;19.90;99.90
25718;DHT22;13574;52.040;5.692;2023-04-28T14:17:46;19.40;99.90
25718;DHT22;13574;52.040;5.692;2023-04-28T14:20:12;19.40;99.90
25718;DHT22;13574;52.040;5.692;2023-04-28T14:22:38;19.50;99.90
25718;DHT22;13574;52.040;5.692;2023-04-28T14:25:05;19.30;99.90
25718;DHT22;13574;52.040;5.692;2023-04-28T14:27:31;19.30;99.90
25718;DHT22;13574;52.040;5.692;2023-04-28T14:29:58;19.20;99.90
25718;DHT22;13574;52.040;5.692;2023-04-28T14:32:24;18.70;99.90
25718;DHT22;13574;52.040;5.692;2023-04-28T14:34:50;18.70;99.90
25718;DHT22;13574;52.040;5.692;2023-04-28T14:37:16;18.60;99.90
25718;DHT22;13574;52.040;5.692;2023-04-28T14:39:45;18.90;99.90
25718;DHT22;13574;52.040;5.692;2023-04-28T14:42:11;18.90;99.90
25718;DHT22;13574;52.040;5.692;2023-04-28T14:44:37;18.80;99.90
25718;DHT22;13574;52.040;5.692;2023-04-28T14:47:02;18.60;99.90
25718;DHT22;13574;52.040;5.692;2023-04-28T14:49:29;19.00;99.90
25718;DHT22;13574;52.040;5.692;2023-04-28T14:51:55;19.00;99.90
25718;DHT22;13574;52.040;5.692;2023-04-28T14:54:21;18.90;99.90
25718;DHT22;13574;52.040;5.692;2023-04-28T14:56:53;18.90;99.90
25718;DHT22;13574;52.040;5.692;2023-04-28T14:59:19;18.70;99.90
25718;DHT22;13574;52.040;5.692;2023-04-28T15:01:45;18.50;99.90
25718;DHT22;13574;52.040;5.692;2023-04-28T15:04:11;18.70;99.90
25718;DHT22;13574;52.040;5.692;2023-04-28T15:06:40;18.70;99.90
25718;DHT22;13574;52.040;5.692;2023-04-28T15:09:06;18.80;99.90
25718;DHT22;13574;52.040;5.692;2023-04-28T15:11:31;18.80;99.90
25718;DHT22;13574;52.040;5.692;2023-04-28T15:13:57;18.90;99.90
25718;DHT22;13574;52.040;5.692;2023-04-28T15:16:23;18.80;99.90
25718;DHT22;13574;52.040;5.692;2023-04-28T15:18:48;18.90;99.90
25718;DHT22;13574;52.040;5.692;2023-04-28T15:21:14;18.80;99.90
25718;DHT22;13574;52.040;5.692;2023-04-28T15:23:40;18.60;99.90
25718;DHT22;13574;52.040;5.692;2023-04-28T15:26:05;18.30;99.90
25718;DHT22;13574;52.040;5.692;2023-04-28T15:28:32;18.40;99.90
25718;DHT22;13574;52.040;5.692;2023-04-28T15:30:58;18.30;99.90
25718;DHT22;13574;52.040;5.692;2023-04-28T15:33:24;18.30;99.90
25718;DHT22;13574;52.040;5.692;2023-04-28T15:35:50;17.90;99.90
25718;DHT22;13574;52.040;5.692;2023-04-28T15:38:15;17.70;99.90
25718;DHT22;13574;52.040;5.692;2023-04-28T15:40:43;17.60;99.90
25718;DHT22;13574;52.040;5.692;2023-04-28T15:43:10;17.60;99.90
25718;DHT22;13574;52.040;5.692;2023-04-28T15:45:37;17.80;99.90
25718;DHT22;13574;52.040;5.692;2023-04-28T15:48:03;17.70;99.90
25718;DHT22;13574;52.040;5.692;2023-04-28T15:50:30;17.90;99.90
25718;DHT22;13574;52.040;5.692;2023-04-28T15:52:56;17.90;99.90
25718;DHT22;13574;52.040;5.692;2023-04-28T15:55:23;18.10;99.90
25718;DHT22;13574;52.040;5.692;2023-04-28T15:57:49;18.10;99.90
25718;DHT22;13574;52.040;5.692;2023-04-28T16:00:17;18.00;99.90
25718;DHT22;13574;52.040;5.692;2023-04-28T16:02:43;17.90;99.90
25718;DHT22;13574;52.040;5.692;2023-04-28T16:05:09;18.10;99.90
25718;DHT22;13574;52.040;5.692;2023-04-28T16:07:35;18.00;99.90
25718;DHT22;13574;52.040;5.692;2023-04-28T16:10:10;18.20;99.90